createdAt,value
2018-02-11T00:01:56.558Z,59.70
2018-02-11T00:04:24.830Z,62.43
2018-02-11T00:06:53.102Z,57.73
2018-02-11T00:09:21.352Z,64.93
2018-02-11T00:11:49.605Z,63.90
2018-02-11T00:14:17.874Z,63.73
2018-02-11T00:16:46.141Z,79.23
2018-02-11T00:19:14.393Z,66.13
2018-02-11T00:21:42.650Z,57.87
2018-02-11T00:24:10.902Z,58.70
2018-02-11T00:26:39.174Z,60.87
2018-02-11T00:29:07.434Z,66.37
2018-02-11T00:31:35.713Z,62.30
2018-02-11T00:34:03.668Z,66.70
2018-02-11T00:36:31.768Z,62.07
2018-02-11T00:39:00.049Z,58.33
2018-02-11T00:41:28.328Z,60.17
2018-02-11T00:43:56.597Z,65.77
2018-02-11T00:46:24.858Z,56.53
2018-02-11T00:48:53.120Z,50.70
2018-02-11T00:51:21.390Z,46.50
2018-02-11T00:53:49.646Z,50.93
2018-02-11T00:56:17.919Z,67.67
2018-02-11T00:58:46.298Z,56.17
2018-02-11T01:01:14.583Z,48.07
2018-02-11T01:03:42.873Z,54.70
2018-02-11T01:06:11.145Z,58.97
2018-02-11T01:08:39.466Z,55.30
2018-02-11T01:11:07.720Z,66.43
2018-02-11T01:13:35.981Z,56.87
2018-02-11T01:16:04.988Z,57.67
2018-02-11T01:18:33.244Z,48.40
2018-02-11T01:21:01.512Z,56.50
2018-02-11T01:23:29.774Z,57.30
2018-02-11T01:25:58.042Z,50.57
2018-02-11T01:28:26.038Z,60.73
2018-02-11T01:30:54.664Z,51.00
2018-02-11T01:33:23.697Z,45.87
2018-02-11T01:35:52.633Z,45.80
2018-02-11T01:38:20.917Z,56.70
2018-02-11T01:40:49.176Z,50.03
2018-02-11T01:43:17.618Z,60.57
2018-02-11T01:45:45.883Z,49.40
2018-02-11T01:48:14.150Z,57.50
2018-02-11T01:50:42.399Z,60.20
2018-02-11T01:53:10.657Z,59.53
2018-02-11T01:55:38.915Z,61.00
2018-02-11T01:58:07.182Z,51.07
2018-02-11T02:00:35.446Z,52.57
2018-02-11T02:03:03.704Z,61.50
2018-02-11T02:05:33.196Z,66.33
2018-02-11T02:08:02.230Z,61.13
2018-02-11T02:10:31.476Z,60.37
2018-02-11T02:12:59.773Z,63.50
2018-02-11T02:15:28.419Z,58.57
2018-02-11T02:17:56.673Z,56.57
2018-02-11T02:20:24.926Z,49.90
2018-02-11T02:22:53.188Z,58.50
2018-02-11T02:25:21.442Z,59.50
2018-02-11T02:27:49.705Z,58.97
2018-02-11T02:30:17.957Z,55.10
2018-02-11T02:32:46.234Z,55.63
2018-02-11T02:35:14.489Z,50.73
2018-02-11T02:37:42.765Z,53.60
2018-02-11T02:40:11.845Z,53.47
2018-02-11T02:42:40.116Z,58.83
2018-02-11T02:45:09.830Z,53.77
2018-02-11T02:47:38.125Z,59.87
2018-02-11T02:50:06.177Z,52.27
2018-02-11T02:52:34.426Z,63.07
2018-02-11T02:55:02.687Z,61.47
2018-02-11T02:57:30.958Z,60.13
2018-02-11T02:59:59.213Z,50.97
2018-02-11T03:02:27.472Z,63.20
2018-02-11T03:04:56.330Z,50.83
2018-02-11T03:07:24.589Z,53.67
2018-02-11T03:09:52.844Z,50.13
2018-02-11T03:12:21.117Z,47.53
2018-02-11T03:14:49.390Z,61.80
2018-02-11T03:17:17.662Z,53.27
2018-02-11T03:19:45.929Z,59.27
2018-02-11T03:22:14.181Z,55.40
2018-02-11T03:24:42.442Z,52.33
2018-02-11T03:27:11.792Z,56.13
2018-02-11T03:29:40.778Z,57.90
2018-02-11T03:32:09.062Z,58.37
2018-02-11T03:34:37.341Z,59.63
2018-02-11T03:37:05.606Z,61.97
2018-02-11T03:39:33.861Z,65.00
2018-02-11T03:42:02.165Z,58.37
2018-02-11T03:44:30.865Z,64.47
2018-02-11T03:46:59.117Z,53.80
2018-02-11T03:49:27.533Z,61.93
2018-02-11T03:51:57.237Z,57.60
2018-02-11T03:54:25.497Z,58.97
2018-02-11T03:56:54.490Z,62.83
2018-02-11T03:59:22.733Z,57.00
2018-02-11T04:01:51.776Z,58.37
2018-02-11T04:04:20.618Z,60.33
2018-02-11T04:06:48.873Z,60.27
2018-02-11T04:09:18.416Z,67.53
2018-02-11T04:11:46.677Z,63.30
2018-02-11T04:14:14.939Z,63.00
2018-02-11T04:16:43.193Z,62.07
2018-02-11T04:19:11.465Z,58.67
2018-02-11T04:21:39.744Z,61.50
2018-02-11T04:24:08.009Z,65.83
2018-02-11T04:26:36.276Z,58.63
2018-02-11T04:29:04.558Z,61.57
2018-02-11T04:31:32.833Z,48.40
2018-02-11T04:34:01.116Z,57.83
2018-02-11T04:36:29.375Z,52.67
2018-02-11T04:38:57.624Z,63.13
2018-02-11T04:41:25.879Z,58.80
2018-02-11T04:43:54.155Z,54.10
2018-02-11T04:46:23.040Z,62.50
2018-02-11T04:48:51.286Z,57.80
2018-02-11T04:51:19.552Z,58.63
2018-02-11T04:53:47.809Z,54.93
2018-02-11T04:56:16.081Z,51.53
2018-02-11T04:58:44.338Z,59.17
2018-02-11T05:01:12.617Z,57.17
2018-02-11T05:03:40.914Z,63.27
2018-02-11T05:06:09.181Z,70.03
2018-02-11T05:08:37.442Z,54.80
2018-02-11T05:11:05.736Z,54.13
2018-02-11T05:13:34.000Z,60.60
2018-02-11T05:16:02.094Z,52.93
2018-02-11T05:18:30.344Z,66.93
2018-02-11T05:20:59.462Z,57.47
2018-02-11T05:23:27.720Z,59.17
2018-02-11T05:25:56.276Z,69.95
2018-02-11T05:28:25.130Z,66.67
2018-02-11T05:30:53.386Z,52.50
2018-02-11T05:33:21.680Z,62.87
2018-02-11T05:35:49.973Z,65.37
2018-02-11T05:38:18.229Z,64.43
2018-02-11T05:40:46.505Z,75.63
2018-02-11T05:43:14.786Z,64.40
2018-02-11T05:45:43.055Z,66.23
2018-02-11T05:48:11.297Z,62.67
2018-02-11T05:50:39.563Z,60.27
2018-02-11T05:53:07.836Z,62.27
2018-02-11T05:55:36.098Z,74.77
2018-02-11T05:58:04.364Z,63.53
2018-02-11T06:00:32.645Z,78.50
2018-02-11T06:03:00.897Z,66.40
2018-02-11T06:05:29.156Z,68.53
2018-02-11T06:07:57.420Z,64.13
2018-02-11T06:10:25.678Z,68.47
2018-02-11T06:12:53.928Z,70.50
2018-02-11T06:15:22.205Z,72.70
2018-02-11T06:17:50.489Z,63.40
2018-02-11T06:20:18.789Z,68.57
2018-02-11T06:22:47.044Z,60.60
2018-02-11T06:25:15.308Z,64.57
2018-02-11T06:27:43.561Z,65.27
2018-02-11T06:30:12.673Z,62.47
2018-02-11T06:32:40.689Z,74.73
2018-02-11T06:35:08.945Z,71.43
2018-02-11T06:37:37.219Z,58.73
2018-02-11T06:40:08.641Z,59.60
2018-02-11T06:42:37.328Z,67.60
2018-02-11T06:45:06.175Z,71.63
2018-02-11T06:47:34.443Z,67.47
2018-02-11T06:50:02.705Z,57.97
2018-02-11T06:52:30.965Z,65.10
2018-02-11T06:54:59.237Z,68.13
2018-02-11T06:57:27.504Z,67.27
2018-02-11T06:59:55.483Z,69.63
2018-02-11T07:02:23.757Z,64.37
2018-02-11T07:04:51.825Z,67.27
2018-02-11T07:07:20.099Z,68.60
2018-02-11T07:09:48.392Z,71.77
2018-02-11T07:12:16.645Z,62.47
2018-02-11T07:14:44.915Z,68.97
2018-02-11T07:17:13.421Z,72.63
2018-02-11T07:19:41.746Z,56.03
2018-02-11T07:22:10.001Z,71.50
2018-02-11T07:24:38.288Z,61.17
2018-02-11T07:27:06.557Z,62.00
2018-02-11T07:29:34.818Z,66.60
2018-02-11T07:32:03.080Z,65.67
2018-02-11T07:34:31.341Z,61.97
2018-02-11T07:36:59.742Z,67.30
2018-02-11T07:39:28.010Z,60.30
2018-02-11T07:41:56.269Z,52.67
2018-02-11T07:44:24.545Z,70.87
2018-02-11T07:46:52.808Z,72.97
2018-02-11T07:49:21.072Z,68.80
2018-02-11T07:51:49.186Z,62.23
2018-02-11T07:54:17.462Z,52.73
2018-02-11T07:56:45.715Z,63.57
2018-02-11T07:59:13.818Z,56.93
2018-02-11T08:01:42.089Z,55.90
2018-02-11T08:04:10.349Z,52.43
2018-02-11T08:06:38.624Z,57.67
2018-02-11T08:09:06.889Z,60.90
2018-02-11T08:11:35.197Z,54.93
2018-02-11T08:14:03.621Z,73.20
2018-02-11T08:16:31.885Z,61.63
2018-02-11T08:19:00.217Z,61.60
2018-02-11T08:21:28.473Z,55.27
2018-02-11T08:23:56.738Z,59.80
2018-02-11T08:26:25.000Z,69.53
2018-02-11T08:28:53.261Z,57.63
2018-02-11T08:31:21.548Z,60.93
2018-02-11T08:33:49.814Z,54.00
2018-02-11T08:36:18.071Z,61.67
2018-02-11T08:38:46.984Z,58.83
2018-02-11T08:41:15.288Z,54.47
2018-02-11T08:43:44.309Z,63.00
2018-02-11T08:46:12.588Z,58.43
2018-02-11T08:48:40.848Z,56.83
2018-02-11T08:51:09.109Z,55.07
2018-02-11T08:53:37.364Z,57.10
2018-02-11T08:56:05.625Z,54.63
2018-02-11T08:58:33.977Z,56.50
2018-02-11T09:01:02.241Z,57.90
2018-02-11T09:03:30.533Z,53.63
2018-02-11T09:05:58.805Z,48.37
2018-02-11T09:08:27.085Z,55.30
2018-02-11T09:10:55.368Z,64.53
2018-02-11T09:13:23.630Z,53.70
2018-02-11T09:15:51.899Z,76.90
2018-02-11T09:18:20.166Z,66.13
2018-02-11T09:20:48.442Z,60.70
2018-02-11T09:23:16.707Z,60.67
2018-02-11T09:25:44.987Z,56.53
2018-02-11T09:28:13.236Z,63.60
2018-02-11T09:30:41.500Z,56.70
2018-02-11T09:33:09.866Z,60.67
2018-02-11T09:35:38.109Z,79.07
2018-02-11T09:38:06.377Z,60.97
2018-02-11T09:40:34.649Z,71.10
2018-02-11T09:43:02.915Z,66.63
2018-02-11T09:45:31.219Z,63.03
2018-02-11T09:47:59.485Z,79.67
2018-02-11T09:50:27.773Z,68.90
2018-02-11T09:52:56.165Z,64.50
2018-02-11T09:55:24.434Z,59.83
2018-02-11T09:57:52.716Z,62.10
2018-02-11T10:00:22.074Z,62.40
2018-02-11T10:02:51.046Z,66.43
2018-02-11T10:05:20.314Z,72.43
2018-02-11T10:07:48.586Z,76.43
2018-02-11T10:10:17.951Z,65.90
2018-02-11T10:12:46.661Z,67.57
2018-02-11T10:15:16.648Z,70.97
2018-02-11T10:17:44.906Z,63.70
2018-02-11T10:20:13.157Z,63.57
2018-02-11T10:22:41.413Z,68.27
2018-02-11T10:25:10.407Z,70.83
2018-02-11T10:27:39.405Z,60.53
2018-02-11T10:30:07.796Z,61.10
2018-02-11T10:32:36.049Z,58.40
2018-02-11T10:35:10.111Z,64.50
2018-02-11T10:37:38.062Z,56.73
2018-02-11T10:40:06.586Z,69.17
2018-02-11T10:42:35.437Z,60.10
2018-02-11T10:45:03.742Z,64.60
2018-02-11T10:47:32.039Z,58.77
2018-02-11T10:50:00.449Z,65.03
2018-02-11T10:52:28.737Z,61.97
2018-02-11T10:54:56.997Z,61.07
2018-02-11T10:57:25.271Z,58.80
2018-02-11T10:59:53.538Z,56.67
2018-02-11T11:02:21.805Z,62.50
2018-02-11T11:04:50.078Z,47.20
2018-02-11T11:07:18.337Z,55.47
2018-02-11T11:09:46.610Z,57.77
2018-02-11T11:12:14.873Z,58.83
2018-02-11T11:14:43.138Z,54.53
2018-02-11T11:17:11.394Z,55.37
2018-02-11T11:19:39.663Z,55.33
2018-02-11T11:22:07.919Z,48.03
2018-02-11T11:24:36.171Z,52.80
2018-02-11T11:27:04.448Z,56.47
2018-02-11T11:29:32.705Z,59.33
2018-02-11T11:32:00.962Z,49.30
2018-02-11T11:34:29.219Z,50.53
2018-02-11T11:36:57.499Z,49.80
2018-02-11T11:39:25.761Z,59.57
2018-02-11T11:41:54.021Z,55.43
2018-02-11T11:44:22.320Z,54.73
2018-02-11T11:46:50.629Z,61.47
2018-02-11T11:49:18.922Z,57.37
2018-02-11T11:51:47.250Z,52.63
2018-02-11T11:54:15.536Z,56.07
2018-02-11T11:56:43.822Z,49.17
2018-02-11T11:59:12.086Z,54.80
2018-02-11T12:01:40.346Z,54.83
2018-02-11T12:04:08.609Z,55.20
2018-02-11T12:06:36.860Z,50.03
2018-02-11T12:09:05.095Z,50.83
2018-02-11T12:11:34.120Z,64.00
2018-02-11T12:14:02.380Z,55.60
2018-02-11T12:16:30.649Z,50.40
2018-02-11T12:18:58.930Z,58.30
2018-02-11T12:21:27.184Z,61.77
2018-02-11T12:23:55.444Z,69.33
2018-02-11T12:26:23.720Z,54.60
2018-02-11T12:28:52.009Z,49.23
2018-02-11T12:31:20.345Z,56.57
2018-02-11T12:33:48.619Z,53.17
2018-02-11T12:36:16.897Z,50.97
2018-02-11T12:38:45.173Z,52.60
2018-02-11T12:41:13.456Z,58.07
2018-02-11T12:43:41.725Z,46.87
2018-02-11T12:46:09.992Z,46.77
2018-02-11T12:48:38.333Z,53.93
2018-02-11T12:51:06.601Z,51.87
2018-02-11T12:53:34.873Z,56.50
2018-02-11T12:56:03.576Z,52.53
2018-02-11T12:58:33.324Z,49.10
2018-02-11T13:01:01.850Z,42.50
2018-02-11T13:03:30.298Z,46.90
2018-02-11T13:05:58.578Z,47.00
2018-02-11T13:08:26.866Z,53.00
2018-02-11T13:10:55.110Z,44.23
2018-02-11T13:13:23.374Z,42.83
2018-02-11T13:15:51.633Z,52.03
2018-02-11T13:18:19.922Z,50.97
2018-02-11T13:20:48.202Z,49.80
2018-02-11T13:23:16.472Z,41.73
2018-02-11T13:25:44.970Z,47.40
2018-02-11T13:28:13.262Z,39.37
2018-02-11T13:30:41.526Z,49.70
2018-02-11T13:33:09.794Z,55.37
2018-02-11T13:35:38.072Z,43.63
2018-02-11T13:38:06.335Z,51.73
2018-02-11T13:40:34.737Z,46.00
2018-02-11T13:43:03.022Z,49.53
2018-02-11T13:45:31.505Z,47.50
2018-02-11T13:47:59.781Z,46.60
2018-02-11T13:50:28.037Z,50.43
2018-02-11T13:52:56.293Z,46.53
2018-02-11T13:55:24.561Z,48.10
2018-02-11T13:57:54.530Z,47.53
2018-02-11T14:00:23.546Z,48.30
2018-02-11T14:02:51.819Z,43.97
2018-02-11T14:05:21.232Z,48.27
2018-02-11T14:07:50.158Z,37.73
2018-02-11T14:10:20.070Z,46.03
2018-02-11T14:12:48.340Z,39.87
2018-02-11T14:15:16.613Z,43.80
2018-02-11T14:17:44.873Z,45.43
2018-02-11T14:20:13.749Z,39.20
2018-02-11T14:22:42.009Z,39.70
2018-02-11T14:25:13.013Z,42.57
2018-02-11T14:27:41.265Z,40.40
2018-02-11T14:30:11.325Z,44.47
2018-02-11T14:32:39.585Z,49.20
2018-02-11T14:35:07.842Z,41.87
2018-02-11T14:37:36.115Z,44.13
2018-02-11T14:40:13.850Z,32.50
2018-02-11T14:42:42.105Z,34.63
2018-02-11T14:45:11.297Z,37.93
2018-02-11T14:47:39.904Z,32.23
2018-02-11T14:50:15.594Z,38.47
2018-02-11T14:52:43.897Z,40.30
2018-02-11T14:55:17.524Z,46.43
2018-02-11T14:57:45.916Z,37.27
2018-02-11T15:00:14.180Z,39.57
2018-02-11T15:02:42.430Z,39.27
2018-02-11T15:05:10.691Z,45.00
2018-02-11T15:07:38.966Z,46.90
2018-02-11T15:10:11.445Z,45.37
2018-02-11T15:12:39.693Z,46.30
2018-02-11T15:15:11.524Z,44.20
2018-02-11T15:17:40.310Z,41.10
2018-02-11T15:20:12.299Z,48.77
2018-02-11T15:22:42.841Z,39.50
2018-02-11T15:25:14.912Z,41.70
2018-02-11T15:27:43.338Z,42.73
2018-02-11T15:30:12.477Z,36.47
2018-02-11T15:32:40.731Z,38.33
2018-02-11T15:35:12.983Z,42.67
2018-02-11T15:37:41.837Z,38.57
2018-02-11T15:40:11.980Z,42.67
2018-02-11T15:42:40.409Z,51.07
2018-02-11T15:45:12.421Z,41.47
2018-02-11T15:47:41.343Z,43.13
2018-02-11T15:50:15.424Z,48.10
2018-02-11T15:52:43.705Z,41.63
2018-02-11T15:55:17.855Z,38.80
2018-02-11T15:57:46.105Z,48.80
2018-02-11T16:00:14.391Z,36.97
2018-02-11T16:02:42.655Z,51.80
2018-02-11T16:05:10.930Z,46.27
2018-02-11T16:07:39.208Z,36.70
2018-02-11T16:10:11.822Z,40.60
2018-02-11T16:12:40.322Z,37.17
2018-02-11T16:15:14.398Z,41.80
2018-02-11T16:17:42.657Z,53.80
2018-02-11T16:20:11.166Z,47.53
2018-02-11T16:22:39.685Z,47.77
2018-02-11T16:25:10.630Z,44.53
2018-02-11T16:27:39.644Z,48.23
2018-02-11T16:30:10.025Z,45.03
2018-02-11T16:32:42.289Z,42.80
2018-02-11T16:35:15.622Z,55.57
2018-02-11T16:37:43.883Z,42.20
2018-02-11T16:40:14.274Z,54.63
2018-02-11T16:42:43.009Z,42.53
2018-02-11T16:45:12.224Z,40.10
2018-02-11T16:47:40.491Z,47.23
2018-02-11T16:50:15.076Z,44.87
2018-02-11T16:52:43.341Z,45.00
2018-02-11T16:55:11.685Z,51.37
2018-02-11T16:57:40.020Z,37.97
2018-02-11T17:00:09.661Z,44.37
2018-02-11T17:02:37.913Z,41.97
2018-02-11T17:05:08.273Z,41.43
2018-02-11T17:07:36.555Z,45.30
2018-02-11T17:10:07.884Z,42.93
2018-02-11T17:12:36.175Z,46.23
2018-02-11T17:15:07.124Z,38.73
2018-02-11T17:17:35.446Z,40.10
2018-02-11T17:20:03.819Z,42.33
2018-02-11T17:22:33.789Z,44.07
2018-02-11T17:25:02.050Z,44.23
2018-02-11T17:27:30.400Z,45.60
2018-02-11T17:29:59.330Z,40.47
2018-02-11T17:32:27.410Z,39.60
2018-02-11T17:34:55.683Z,50.67
2018-02-11T17:37:23.978Z,43.00
2018-02-11T17:39:52.246Z,45.00
2018-02-11T17:42:20.549Z,41.80
2018-02-11T17:44:49.122Z,44.93
2018-02-11T17:47:17.393Z,38.97
2018-02-11T17:49:46.365Z,38.00
2018-02-11T17:52:17.173Z,41.17
2018-02-11T17:54:47.756Z,45.97
2018-02-11T17:57:16.013Z,43.73
2018-02-11T17:59:44.293Z,50.17
2018-02-11T18:02:13.101Z,48.07
2018-02-11T18:04:41.373Z,44.20
2018-02-11T18:07:09.904Z,51.50
2018-02-11T18:09:38.937Z,52.27
2018-02-11T18:12:07.266Z,41.73
2018-02-11T18:14:35.773Z,42.00
2018-02-11T18:17:04.082Z,45.60
2018-02-11T18:19:32.883Z,45.20
2018-02-11T18:22:01.210Z,42.13
2018-02-11T18:24:29.530Z,42.83
2018-02-11T18:26:57.826Z,44.90
2018-02-11T18:29:26.141Z,48.30
2018-02-11T18:31:54.412Z,51.57
2018-02-11T18:34:22.693Z,44.90
2018-02-11T18:36:50.965Z,48.57
2018-02-11T18:42:34.445Z,54.17
2018-02-11T18:45:02.779Z,56.00
2018-02-11T18:47:31.057Z,51.50
2018-02-11T18:49:59.313Z,46.50
2018-02-11T18:52:33.765Z,61.70
2018-02-11T18:55:02.085Z,52.17
2018-02-11T18:57:30.349Z,63.63
2018-02-11T18:59:58.673Z,54.63
2018-02-11T19:02:26.934Z,48.23
2018-02-11T19:04:55.219Z,56.17
2018-02-11T19:07:23.498Z,45.37
2018-02-11T19:09:51.763Z,57.63
2018-02-11T19:12:20.041Z,64.20
2018-02-11T19:14:48.305Z,59.20
2018-02-11T19:17:16.565Z,54.90
2018-02-11T19:20:13.529Z,58.30
2018-02-11T19:22:42.531Z,55.73
2018-02-11T19:25:10.822Z,58.60
2018-02-11T19:27:39.319Z,59.50
2018-02-11T19:30:10.210Z,60.90
2018-02-11T19:32:38.469Z,57.03
2018-02-11T19:35:09.349Z,48.47
2018-02-11T19:37:37.609Z,39.40
2018-02-11T19:40:08.272Z,35.43
2018-02-11T19:42:36.564Z,47.03
2018-02-11T19:45:04.845Z,32.87
2018-02-11T19:47:33.106Z,44.53
2018-02-11T19:50:01.398Z,36.63
2018-02-11T19:52:29.672Z,40.97
2018-02-11T19:54:57.925Z,40.60
2018-02-11T19:57:26.212Z,47.73
2018-02-11T19:59:55.516Z,36.93
2018-02-11T20:02:23.806Z,50.80
2018-02-11T20:04:52.080Z,45.70
2018-02-11T20:07:20.351Z,49.53
2018-02-11T20:09:48.686Z,43.83
2018-02-11T20:12:16.946Z,46.33
2018-02-11T20:14:46.192Z,46.97
2018-02-11T20:17:18.700Z,47.07
2018-02-11T20:19:53.040Z,48.03
2018-02-11T20:22:23.268Z,46.53
2018-02-11T20:24:52.305Z,48.50
2018-02-11T20:27:29.674Z,57.60
2018-02-11T20:29:58.123Z,46.00
2018-02-11T20:32:26.985Z,46.73
2018-02-11T20:34:55.243Z,47.60
2018-02-11T20:37:24.354Z,58.40
2018-02-11T20:39:57.989Z,73.63
2018-02-11T20:42:29.542Z,66.83
2018-02-11T20:44:57.832Z,65.20
2018-02-11T20:47:27.754Z,80.43
2018-02-11T20:49:56.012Z,50.00
2018-02-11T20:52:24.283Z,62.13
2018-02-11T20:54:52.769Z,47.23
2018-02-11T20:57:21.016Z,47.73
2018-02-11T20:59:49.274Z,48.53
2018-02-11T21:02:17.662Z,64.50
2018-02-11T21:04:45.920Z,77.37
2018-02-11T21:07:14.191Z,58.90
2018-02-11T21:09:42.467Z,55.87
2018-02-11T21:12:11.442Z,44.40
2018-02-11T21:14:39.735Z,50.87
2018-02-11T21:17:08.013Z,38.97
2018-02-11T21:19:36.273Z,48.07
2018-02-11T21:22:05.478Z,52.40
2018-02-11T21:24:33.741Z,45.83
2018-02-11T21:27:02.041Z,43.00
2018-02-11T21:29:30.305Z,39.27
2018-02-11T21:31:58.554Z,41.10
2018-02-11T21:34:27.112Z,56.40
2018-02-11T21:36:55.378Z,46.23
2018-02-11T21:39:23.817Z,39.80
2018-02-11T21:41:52.086Z,48.20
2018-02-11T21:44:21.662Z,48.33
2018-02-11T21:46:49.948Z,39.70
2018-02-11T21:49:18.835Z,44.90
2018-02-11T21:51:47.869Z,45.73
2018-02-11T21:54:16.959Z,47.90
2018-02-11T21:56:45.240Z,44.67
2018-02-11T21:59:13.503Z,53.20
2018-02-11T22:01:41.787Z,42.77
2018-02-11T22:04:10.071Z,48.10
2018-02-11T22:06:38.029Z,51.83
2018-02-11T22:09:06.642Z,60.73
2018-02-11T22:11:34.910Z,45.23
2018-02-11T22:14:03.373Z,53.60
2018-02-11T22:16:31.624Z,49.10
2018-02-11T22:18:59.872Z,50.60
2018-02-11T22:21:28.464Z,60.87
2018-02-11T22:23:57.164Z,50.10
2018-02-11T22:26:25.556Z,50.53
2018-02-11T22:28:55.667Z,46.83
2018-02-11T22:31:24.853Z,57.63
2018-02-11T22:33:53.120Z,43.97
2018-02-11T22:36:21.799Z,49.43
2018-02-11T22:38:51.033Z,52.23
2018-02-11T22:41:19.925Z,45.60
2018-02-11T22:43:48.184Z,47.93
2018-02-11T22:46:16.449Z,54.37
2018-02-11T22:48:45.008Z,35.33
2018-02-11T22:51:13.891Z,46.23
2018-02-11T22:53:42.147Z,41.07
2018-02-11T22:56:10.558Z,56.20
2018-02-11T22:58:39.797Z,51.93
2018-02-11T23:01:08.057Z,42.20
2018-02-11T23:03:36.912Z,56.70
2018-02-11T23:06:05.513Z,48.93
2018-02-11T23:08:33.771Z,50.90
2018-02-11T23:11:02.021Z,46.10
2018-02-11T23:13:30.270Z,36.23
2018-02-11T23:15:59.279Z,32.03
2018-02-11T23:18:28.321Z,42.63
2018-02-11T23:20:56.622Z,45.40
2018-02-11T23:23:25.721Z,44.53
2018-02-11T23:25:54.201Z,24.33
2018-02-11T23:28:23.368Z,27.03
2018-02-11T23:30:51.618Z,18.07
2018-02-11T23:33:19.890Z,20.33
2018-02-11T23:35:48.332Z,16.83
2018-02-11T23:38:16.583Z,24.73
2018-02-11T23:40:44.822Z,27.00
2018-02-11T23:43:13.982Z,30.13
2018-02-11T23:45:43.177Z,22.63
2018-02-11T23:48:11.426Z,17.33
2018-02-11T23:50:39.670Z,16.57
2018-02-11T23:53:07.930Z,16.50
2018-02-11T23:55:36.186Z,15.43
2018-02-11T23:58:05.116Z,17.23
